createdAt,value
2018-03-30T00:00:16.039Z,71.33
2018-03-30T00:02:44.190Z,71.50
2018-03-30T00:05:13.661Z,71.50
2018-03-30T00:07:42.071Z,71.45
2018-03-30T00:10:10.553Z,71.63
2018-03-30T00:12:38.238Z,71.75
2018-03-30T00:15:05.873Z,71.79
2018-03-30T00:17:34.073Z,71.83
2018-03-30T00:20:02.358Z,71.84
2018-03-30T00:22:30.599Z,71.84
2018-03-30T00:24:58.671Z,71.92
2018-03-30T00:27:26.280Z,71.98
2018-03-30T00:29:54.854Z,71.92
2018-03-30T00:32:22.415Z,72.03
2018-03-30T00:34:50.094Z,72.04
2018-03-30T00:37:17.808Z,72.00
2018-03-30T00:39:45.930Z,71.98
2018-03-30T00:42:14.676Z,72.07
2018-03-30T00:44:42.840Z,72.01
2018-03-30T00:47:10.535Z,72.18
2018-03-30T00:49:39.048Z,72.29
2018-03-30T00:52:06.689Z,72.44
2018-03-30T00:54:34.343Z,72.39
2018-03-30T00:57:02.044Z,72.36
2018-03-30T00:59:30.333Z,72.40
2018-03-30T01:01:58.718Z,72.46
2018-03-30T01:04:27.021Z,72.49
2018-03-30T01:06:55.664Z,72.66
2018-03-30T01:09:24.130Z,72.57
2018-03-30T01:11:51.827Z,72.69
2018-03-30T01:14:20.145Z,72.77
2018-03-30T01:16:48.289Z,72.62
2018-03-30T01:19:17.764Z,72.70
2018-03-30T01:21:45.858Z,72.79
2018-03-30T01:24:14.325Z,72.85
2018-03-30T01:26:42.193Z,72.75
2018-03-30T01:29:10.676Z,72.69
2018-03-30T01:31:38.312Z,72.68
2018-03-30T01:34:06.026Z,72.78
2018-03-30T01:36:33.768Z,72.82
2018-03-30T01:39:01.384Z,72.93
2018-03-30T01:41:29.098Z,72.99
2018-03-30T01:43:56.761Z,72.95
2018-03-30T01:46:24.563Z,72.99
2018-03-30T01:48:52.257Z,73.05
2018-03-30T01:51:20.877Z,73.17
2018-03-30T01:53:48.574Z,73.30
2018-03-30T01:56:16.791Z,73.36
2018-03-30T01:58:45.387Z,73.53
2018-03-30T02:01:14.116Z,73.57
2018-03-30T02:03:44.133Z,73.66
2018-03-30T02:06:13.486Z,73.67
2018-03-30T02:08:43.232Z,73.86
2018-03-30T02:11:12.570Z,73.83
2018-03-30T02:13:40.800Z,73.92
2018-03-30T02:16:08.539Z,73.80
2018-03-30T02:18:36.723Z,73.61
2018-03-30T02:21:04.372Z,73.74
2018-03-30T02:23:32.649Z,73.88
2018-03-30T02:26:00.388Z,73.80
2018-03-30T02:28:27.993Z,73.90
2018-03-30T02:30:56.354Z,74.07
2018-03-30T02:33:24.156Z,74.21
2018-03-30T02:35:51.982Z,74.39
2018-03-30T02:38:20.679Z,74.38
2018-03-30T02:40:48.329Z,74.35
2018-03-30T02:43:15.923Z,74.44
2018-03-30T02:45:44.009Z,74.80
2018-03-30T02:48:13.670Z,74.60
2018-03-30T02:50:41.977Z,74.60
2018-03-30T02:53:09.639Z,74.75
2018-03-30T02:55:37.302Z,74.57
2018-03-30T02:58:05.063Z,74.64
2018-03-30T03:00:34.086Z,74.72
2018-03-30T03:03:02.592Z,74.67
2018-03-30T03:05:31.245Z,75.02
2018-03-30T03:07:59.785Z,75.06
2018-03-30T03:10:27.613Z,75.05
2018-03-30T03:12:56.011Z,74.79
2018-03-30T03:15:23.730Z,74.78
2018-03-30T03:17:52.194Z,75.15
2018-03-30T03:20:20.650Z,74.87
2018-03-30T03:22:48.823Z,74.79
2018-03-30T03:25:16.470Z,74.83
2018-03-30T03:27:44.309Z,75.42
2018-03-30T03:30:14.023Z,74.96
2018-03-30T03:32:43.401Z,75.32
2018-03-30T03:35:11.101Z,74.54
2018-03-30T03:37:38.742Z,74.99
2018-03-30T03:40:06.400Z,74.97
2018-03-30T03:42:33.990Z,74.94
2018-03-30T03:45:01.624Z,75.52
2018-03-30T03:47:29.202Z,75.60
2018-03-30T03:49:57.404Z,75.37
2018-03-30T03:52:25.034Z,75.75
2018-03-30T03:54:52.752Z,76.07
2018-03-30T03:57:20.413Z,76.02
2018-03-30T03:59:48.612Z,76.31
2018-03-30T04:02:17.278Z,76.35
2018-03-30T04:04:45.549Z,77.03
2018-03-30T04:07:13.493Z,77.20
2018-03-30T04:09:43.372Z,77.15
2018-03-30T04:12:12.553Z,77.27
2018-03-30T04:14:40.195Z,77.30
2018-03-30T04:17:08.445Z,77.40
2018-03-30T04:19:36.784Z,77.30
2018-03-30T04:22:05.436Z,77.31
2018-03-30T04:24:33.132Z,77.65
2018-03-30T04:27:00.790Z,77.26
2018-03-30T04:29:29.216Z,77.72
2018-03-30T04:31:57.833Z,77.62
2018-03-30T04:34:25.420Z,77.87
2018-03-30T04:36:54.128Z,77.67
2018-03-30T04:39:21.846Z,77.48
2018-03-30T04:41:49.480Z,77.54
2018-03-30T04:44:17.168Z,77.43
2018-03-30T04:46:44.945Z,77.44
2018-03-30T04:49:13.088Z,77.40
2018-03-30T04:51:41.373Z,77.62
2018-03-30T04:54:09.070Z,77.79
2018-03-30T04:56:36.689Z,77.85
2018-03-30T04:59:05.447Z,77.72
2018-03-30T05:01:33.836Z,77.52
2018-03-30T05:04:01.507Z,77.54
2018-03-30T05:06:29.727Z,77.58
2018-03-30T05:08:57.990Z,77.27
2018-03-30T05:11:25.662Z,77.40
2018-03-30T05:13:54.380Z,77.48
2018-03-30T05:16:21.972Z,77.37
2018-03-30T05:18:50.292Z,77.44
2018-03-30T05:21:18.013Z,77.38
2018-03-30T05:23:46.105Z,77.12
2018-03-30T05:26:14.053Z,77.01
2018-03-30T05:28:43.595Z,77.02
2018-03-30T05:31:13.171Z,76.96
2018-03-30T05:33:40.751Z,76.96
2018-03-30T05:36:08.374Z,76.79
2018-03-30T05:38:35.977Z,76.72
2018-03-30T05:41:03.613Z,76.52
2018-03-30T05:43:31.267Z,76.26
2018-03-30T05:45:59.066Z,76.09
2018-03-30T05:48:26.839Z,76.15
2018-03-30T05:50:55.295Z,75.91
2018-03-30T05:53:23.184Z,75.52
2018-03-30T05:55:51.463Z,75.38
2018-03-30T05:58:19.695Z,75.17
2018-03-30T06:00:48.578Z,75.13
2018-03-30T06:03:16.393Z,75.10
2018-03-30T06:05:45.055Z,74.83
2018-03-30T06:08:13.753Z,74.46
2018-03-30T06:13:40.424Z,73.89
2018-03-30T06:16:08.088Z,73.60
2018-03-30T06:18:36.249Z,73.60
2018-03-30T06:21:04.077Z,73.26
2018-03-30T06:23:32.584Z,73.10
2018-03-30T06:26:00.270Z,73.08
2018-03-30T06:28:28.185Z,72.87
2018-03-30T06:30:56.513Z,72.71
2018-03-30T06:33:24.380Z,72.69
2018-03-30T06:35:52.021Z,72.36
2018-03-30T06:38:19.812Z,72.29
2018-03-30T06:40:47.699Z,72.33
2018-03-30T06:43:15.335Z,72.36
2018-03-30T06:45:44.153Z,72.42
2018-03-30T06:48:12.635Z,72.18
2018-03-30T06:50:41.937Z,71.92
2018-03-30T06:53:09.666Z,71.98
2018-03-30T06:55:37.994Z,71.90
2018-03-30T06:58:05.580Z,72.23
2018-03-30T07:00:33.984Z,71.81
2018-03-30T07:03:01.687Z,72.26
2018-03-30T07:05:30.118Z,72.23
2018-03-30T07:07:58.305Z,72.17
2018-03-30T07:10:25.901Z,71.96
2018-03-30T07:12:55.467Z,71.87
2018-03-30T07:15:23.128Z,72.05
2018-03-30T07:17:51.395Z,71.71
2018-03-30T07:20:19.449Z,71.79
2018-03-30T07:22:47.792Z,71.74
2018-03-30T07:25:15.415Z,71.32
2018-03-30T07:27:44.057Z,71.38
2018-03-30T07:30:12.889Z,70.99
2018-03-30T07:32:40.524Z,70.67
2018-03-30T07:35:08.128Z,70.51
2018-03-30T07:37:35.794Z,70.44
2018-03-30T07:40:03.435Z,69.80
2018-03-30T07:42:31.074Z,69.95
2018-03-30T07:44:58.720Z,69.66
2018-03-30T07:47:26.364Z,69.22
2018-03-30T07:49:55.038Z,68.42
2018-03-30T07:52:23.488Z,68.04
2018-03-30T07:54:51.162Z,67.62
2018-03-30T07:57:18.752Z,67.17
2018-03-30T07:59:47.183Z,67.17
2018-03-30T08:02:15.724Z,67.22
2018-03-30T08:04:44.250Z,66.62
2018-03-30T08:07:12.473Z,66.04
2018-03-30T08:09:40.874Z,65.55
2018-03-30T08:12:09.239Z,65.05
2018-03-30T08:14:36.765Z,64.69
2018-03-30T08:17:04.892Z,64.73
2018-03-30T08:19:33.244Z,63.97
2018-03-30T08:22:01.511Z,63.43
2018-03-30T08:24:29.149Z,62.95
2018-03-30T08:26:56.692Z,62.18
2018-03-30T08:29:25.029Z,61.64
2018-03-30T08:31:52.575Z,61.20
2018-03-30T08:34:20.126Z,60.82
2018-03-30T08:36:47.816Z,60.98
2018-03-30T08:39:15.404Z,61.22
2018-03-30T08:41:43.322Z,61.65
2018-03-30T08:44:11.005Z,60.62
2018-03-30T08:46:38.565Z,59.81
2018-03-30T08:49:07.088Z,59.54
2018-03-30T08:51:35.167Z,59.38
2018-03-30T08:54:02.682Z,58.62
2018-03-30T08:56:30.414Z,58.07
2018-03-30T08:58:58.905Z,57.63
2018-03-30T09:01:26.916Z,57.50
2018-03-30T09:03:54.465Z,56.58
2018-03-30T09:06:22.508Z,56.96
2018-03-30T09:08:50.963Z,57.20
2018-03-30T09:11:18.496Z,56.53
2018-03-30T09:13:46.545Z,56.06
2018-03-30T09:16:14.143Z,55.42
2018-03-30T09:18:42.444Z,54.95
2018-03-30T09:21:10.725Z,52.98
2018-03-30T09:23:38.775Z,51.90
2018-03-30T09:26:07.590Z,51.45
2018-03-30T09:28:35.150Z,51.84
2018-03-30T09:31:03.367Z,50.04
2018-03-30T09:33:30.908Z,49.68
2018-03-30T09:35:58.452Z,48.15
2018-03-30T09:38:26.022Z,48.98
2018-03-30T09:40:53.707Z,48.36
2018-03-30T09:43:21.317Z,48.30
2018-03-30T09:45:48.976Z,48.86
2018-03-30T09:48:17.100Z,47.61
2018-03-30T09:50:45.233Z,47.85
2018-03-30T09:53:13.174Z,46.93
2018-03-30T09:55:40.737Z,46.44
2018-03-30T09:58:08.301Z,46.20
2018-03-30T10:00:37.671Z,46.95
2018-03-30T10:03:05.216Z,47.16
2018-03-30T10:05:33.377Z,47.02
2018-03-30T10:08:01.705Z,46.22
2018-03-30T10:10:29.283Z,46.75
2018-03-30T10:12:57.557Z,46.40
2018-03-30T10:15:25.293Z,46.78
2018-03-30T10:17:53.424Z,45.54
2018-03-30T10:20:21.977Z,46.19
2018-03-30T10:22:49.950Z,43.11
2018-03-30T10:25:17.506Z,44.71
2018-03-30T10:27:45.046Z,45.69
2018-03-30T10:30:14.004Z,44.34
2018-03-30T10:32:42.773Z,43.97
2018-03-30T10:35:10.378Z,43.37
2018-03-30T10:37:37.914Z,42.85
2018-03-30T10:40:05.485Z,43.07
2018-03-30T10:42:33.006Z,42.70
2018-03-30T10:45:01.300Z,40.73
2018-03-30T10:47:28.831Z,38.81
2018-03-30T10:49:57.411Z,37.96
2018-03-30T10:52:25.932Z,37.15
2018-03-30T10:54:53.471Z,37.15
2018-03-30T10:57:21.140Z,36.82
2018-03-30T10:59:49.340Z,36.66
2018-03-30T11:02:17.020Z,36.72
2018-03-30T11:04:45.297Z,36.90
2018-03-30T11:07:13.337Z,37.58
2018-03-30T11:09:41.679Z,37.97
2018-03-30T11:12:10.197Z,38.50
2018-03-30T11:14:37.730Z,38.81
2018-03-30T11:17:05.782Z,35.51
2018-03-30T11:19:39.892Z,35.62
2018-03-30T11:22:08.104Z,36.01
2018-03-30T11:24:35.693Z,36.41
2018-03-30T11:27:03.257Z,37.19
2018-03-30T11:29:31.408Z,36.41
2018-03-30T11:31:59.773Z,37.15
2018-03-30T11:34:27.431Z,37.30
2018-03-30T11:36:55.096Z,37.48
2018-03-30T11:39:23.084Z,36.53
2018-03-30T11:41:51.416Z,36.11
2018-03-30T11:44:18.934Z,36.04
2018-03-30T11:46:46.456Z,36.55
2018-03-30T11:49:14.015Z,36.79
2018-03-30T11:51:42.817Z,35.65
2018-03-30T11:54:10.368Z,34.42
2018-03-30T11:56:37.943Z,34.40
2018-03-30T11:59:05.968Z,33.57
2018-03-30T12:01:34.355Z,33.23
2018-03-30T12:04:01.896Z,33.17
2018-03-30T12:06:30.068Z,32.55
2018-03-30T12:08:58.506Z,32.50
2018-03-30T12:11:26.042Z,33.13
2018-03-30T12:13:54.036Z,33.33
2018-03-30T12:16:21.591Z,32.83
2018-03-30T12:18:49.796Z,33.17
2018-03-30T12:21:17.815Z,33.09
2018-03-30T12:23:46.248Z,33.36
2018-03-30T12:26:13.924Z,33.71
2018-03-30T12:28:41.512Z,33.35
2018-03-30T12:31:09.816Z,33.12
2018-03-30T12:33:37.343Z,33.39
2018-03-30T12:36:04.907Z,34.89
2018-03-30T12:38:32.484Z,35.29
2018-03-30T12:41:00.840Z,35.30
2018-03-30T12:43:28.440Z,35.52
2018-03-30T12:45:56.302Z,35.54
2018-03-30T12:48:23.964Z,36.10
2018-03-30T12:50:53.215Z,36.11
2018-03-30T12:53:20.748Z,36.26
2018-03-30T12:55:48.295Z,36.94
2018-03-30T12:58:15.887Z,37.04
2018-03-30T13:00:44.119Z,35.50
2018-03-30T13:03:11.959Z,34.13
2018-03-30T13:05:40.952Z,35.16
2018-03-30T13:08:09.390Z,36.55
2018-03-30T13:10:36.980Z,36.33
2018-03-30T13:13:05.032Z,35.38
2018-03-30T13:15:32.570Z,34.03
2018-03-30T13:18:00.723Z,33.67
2018-03-30T13:20:28.961Z,33.59
2018-03-30T13:22:57.012Z,33.71
2018-03-30T13:25:25.006Z,32.67
2018-03-30T13:27:52.560Z,33.20
2018-03-30T13:30:20.508Z,32.71
2018-03-30T13:32:48.039Z,32.65
2018-03-30T13:35:15.594Z,32.51
2018-03-30T13:37:44.779Z,33.70
2018-03-30T13:40:12.432Z,33.36
2018-03-30T13:42:39.969Z,32.94
2018-03-30T13:45:07.544Z,33.30
2018-03-30T13:47:35.063Z,33.02
2018-03-30T13:50:04.456Z,32.46
2018-03-30T13:52:43.053Z,31.53
2018-03-30T13:55:11.724Z,32.39
2018-03-30T13:57:46.852Z,32.14
2018-03-30T14:00:22.931Z,32.06
2018-03-30T14:03:04.940Z,31.95
2018-03-30T14:05:35.036Z,32.80
2018-03-30T14:11:27.674Z,31.79
2018-03-30T14:13:55.964Z,31.75
2018-03-30T14:16:24.564Z,32.24
2018-03-30T14:18:57.276Z,31.76
2018-03-30T14:21:25.832Z,32.25
2018-03-30T14:23:56.167Z,32.13
2018-03-30T14:26:56.256Z,31.62
2018-03-30T14:29:29.454Z,30.97
2018-03-30T14:32:01.790Z,30.93
2018-03-30T14:37:51.045Z,30.90
2018-03-30T14:40:22.419Z,30.77
2018-03-30T14:42:49.985Z,31.08
2018-03-30T14:45:22.148Z,31.55
2018-03-30T14:47:50.338Z,31.38
2018-03-30T14:53:36.116Z,30.97
2018-03-30T14:59:14.868Z,29.62
2018-03-30T15:01:46.662Z,29.91
2018-03-30T15:04:17.915Z,30.08
2018-03-30T15:06:49.928Z,29.75
2018-03-30T15:09:34.772Z,29.44
2018-03-30T15:12:13.968Z,28.50
2018-03-30T15:14:47.489Z,28.98
2018-03-30T15:17:32.220Z,29.04
2018-03-30T15:20:18.130Z,28.58
2018-03-30T15:23:01.102Z,28.87
2018-03-30T15:25:34.700Z,28.62
2018-03-30T15:28:14.007Z,28.66
2018-03-30T15:30:50.735Z,29.78
2018-03-30T15:33:19.484Z,29.78
2018-03-30T15:35:49.970Z,29.43
2018-03-30T15:38:17.521Z,29.71
2018-03-30T15:40:45.775Z,29.92
2018-03-30T15:43:15.751Z,29.87
2018-03-30T15:45:55.089Z,30.25
2018-03-30T15:48:22.653Z,30.16
2018-03-30T15:50:52.425Z,29.75
2018-03-30T15:53:19.414Z,29.91
2018-03-30T15:55:47.877Z,29.28
2018-03-30T15:58:15.476Z,29.97
2018-03-30T16:00:44.875Z,29.99
2018-03-30T16:03:12.951Z,30.21
2018-03-30T16:05:41.603Z,30.34
2018-03-30T16:08:09.605Z,30.61
2018-03-30T16:10:43.635Z,30.82
2018-03-30T16:13:11.821Z,30.83
2018-03-30T16:15:39.523Z,30.28
2018-03-30T16:18:07.919Z,31.12
2018-03-30T16:20:34.927Z,31.38
2018-03-30T16:23:01.905Z,31.51
2018-03-30T16:25:28.973Z,31.45
2018-03-30T16:27:56.018Z,31.83
2018-03-30T16:30:24.455Z,32.55
2018-03-30T16:32:51.444Z,32.27
2018-03-30T16:35:18.448Z,32.90
2018-03-30T16:37:45.480Z,32.89
2018-03-30T16:40:12.581Z,32.96
2018-03-30T16:42:39.688Z,33.16
2018-03-30T16:45:06.752Z,33.16
2018-03-30T16:47:34.349Z,33.89
2018-03-30T16:50:02.079Z,33.79
2018-03-30T16:52:29.076Z,33.86
2018-03-30T16:54:56.061Z,33.80
2018-03-30T16:57:23.072Z,34.17
2018-03-30T16:59:50.530Z,34.42
2018-03-30T17:02:17.519Z,34.63
2018-03-30T17:04:45.619Z,35.19
2018-03-30T17:07:12.607Z,34.94
2018-03-30T17:09:39.910Z,35.28
2018-03-30T17:12:07.573Z,35.17
2018-03-30T17:14:34.568Z,35.48
2018-03-30T17:17:02.291Z,35.72
2018-03-30T17:19:29.961Z,35.27
2018-03-30T17:21:56.940Z,35.82
2018-03-30T17:24:24.162Z,35.79
2018-03-30T17:26:51.215Z,36.22
2018-03-30T17:29:19.233Z,36.66
2018-03-30T17:31:46.237Z,36.70
2018-03-30T17:34:13.425Z,36.61
2018-03-30T17:36:40.692Z,36.58
2018-03-30T17:39:07.698Z,36.94
2018-03-30T17:41:34.701Z,37.46
2018-03-30T17:44:01.767Z,37.61
2018-03-30T17:46:28.872Z,37.38
2018-03-30T17:48:55.860Z,37.85
2018-03-30T17:51:24.039Z,38.12
2018-03-30T17:53:51.024Z,38.25
2018-03-30T17:56:18.054Z,38.02
2018-03-30T17:58:45.643Z,38.50
2018-03-30T18:01:13.455Z,38.55
2018-03-30T18:03:40.484Z,39.04
2018-03-30T18:06:08.083Z,39.23
2018-03-30T18:08:35.744Z,39.34
2018-03-30T18:11:02.765Z,39.64
2018-03-30T18:13:30.547Z,39.85
2018-03-30T18:15:57.532Z,40.40
2018-03-30T18:18:25.033Z,40.62
2018-03-30T18:20:52.030Z,40.67
2018-03-30T18:23:19.018Z,40.79
2018-03-30T18:25:46.699Z,40.93
2018-03-30T18:28:13.742Z,40.87
2018-03-30T18:30:41.423Z,41.24
2018-03-30T18:33:09.339Z,41.47
2018-03-30T18:35:36.451Z,41.75
2018-03-30T18:38:03.486Z,41.78
2018-03-30T18:40:30.597Z,41.99
2018-03-30T18:42:57.628Z,42.18
2018-03-30T18:45:24.914Z,42.46
2018-03-30T18:47:52.122Z,42.56
2018-03-30T18:50:19.701Z,42.97
2018-03-30T18:52:46.688Z,42.86
2018-03-30T18:55:13.713Z,42.97
2018-03-30T18:57:40.749Z,43.26
2018-03-30T19:00:08.722Z,43.38
2018-03-30T19:02:35.766Z,43.41
2018-03-30T19:05:03.465Z,43.58
2018-03-30T19:07:30.554Z,43.55
2018-03-30T19:09:58.850Z,44.00
2018-03-30T19:12:26.590Z,43.89
2018-03-30T19:14:53.643Z,43.62
2018-03-30T19:17:22.062Z,43.46
2018-03-30T19:19:49.905Z,43.59
2018-03-30T19:22:17.766Z,43.70
2018-03-30T19:24:44.763Z,43.67
2018-03-30T19:27:12.048Z,43.85
2018-03-30T19:29:39.869Z,43.73
2018-03-30T19:32:06.883Z,43.89
2018-03-30T19:34:34.464Z,43.97
2018-03-30T19:37:01.456Z,44.19
2018-03-30T19:39:29.976Z,44.12
2018-03-30T19:41:57.063Z,44.49
2018-03-30T19:44:24.200Z,44.50
2018-03-30T19:46:51.220Z,44.61
2018-03-30T19:49:18.253Z,44.89
2018-03-30T19:51:46.154Z,44.90
2018-03-30T19:54:13.231Z,45.03
2018-03-30T19:56:40.225Z,45.03
2018-03-30T19:59:07.934Z,45.01
2018-03-30T20:01:35.900Z,44.89
2018-03-30T20:04:02.910Z,45.24
2018-03-30T20:06:30.604Z,45.86
2018-03-30T20:08:58.065Z,45.09
2018-03-30T20:11:25.069Z,46.02
2018-03-30T20:13:52.718Z,46.59
2018-03-30T20:16:19.713Z,47.16
2018-03-30T20:18:47.484Z,47.12
2018-03-30T20:21:15.192Z,47.13
2018-03-30T20:23:42.528Z,47.98
2018-03-30T20:26:09.603Z,48.06
2018-03-30T20:28:36.653Z,48.53
2018-03-30T20:31:04.136Z,48.38
2018-03-30T20:33:31.144Z,48.30
2018-03-30T20:35:58.177Z,48.31
2018-03-30T20:38:25.242Z,48.44
2018-03-30T20:40:52.345Z,48.81
2018-03-30T20:43:19.444Z,49.27
2018-03-30T20:45:46.642Z,48.60
2018-03-30T20:48:13.673Z,48.77
2018-03-30T20:50:41.558Z,49.20
2018-03-30T20:53:08.639Z,48.53
2018-03-30T20:55:35.686Z,49.86
2018-03-30T20:58:02.936Z,50.82
2018-03-30T21:00:30.420Z,49.58
2018-03-30T21:02:57.463Z,49.74
2018-03-30T21:05:25.269Z,50.12
2018-03-30T21:07:52.270Z,49.92
2018-03-30T21:10:19.799Z,50.72
2018-03-30T21:12:47.428Z,49.82
2018-03-30T21:15:14.480Z,50.14
2018-03-30T21:17:42.433Z,50.53
2018-03-30T21:20:10.308Z,51.02
2018-03-30T21:22:37.352Z,50.61
2018-03-30T21:25:04.564Z,50.69
2018-03-30T21:27:31.765Z,50.29
2018-03-30T21:29:59.499Z,50.63
2018-03-30T21:32:26.496Z,51.38
2018-03-30T21:34:54.132Z,51.48
2018-03-30T21:37:21.143Z,51.21
2018-03-30T21:39:48.938Z,50.93
2018-03-30T21:42:16.138Z,51.49
2018-03-30T21:44:43.302Z,51.61
2018-03-30T21:47:10.397Z,52.58
2018-03-30T21:49:38.272Z,51.90
2018-03-30T21:52:05.319Z,50.96
2018-03-30T21:54:32.334Z,50.90
2018-03-30T21:56:59.462Z,50.67
2018-03-30T21:59:27.048Z,50.85
2018-03-30T22:01:54.732Z,50.61
2018-03-30T22:04:21.783Z,50.98
2018-03-30T22:06:49.461Z,50.03
2018-03-30T22:09:17.125Z,50.17
2018-03-30T22:11:44.175Z,50.14
2018-03-30T22:14:12.163Z,50.29
2018-03-30T22:16:39.878Z,49.85
2018-03-30T22:19:07.575Z,48.90
2018-03-30T22:21:34.585Z,48.58
2018-03-30T22:24:01.614Z,48.71
2018-03-30T22:26:28.683Z,49.33
2018-03-30T22:28:55.750Z,49.71
2018-03-30T22:31:23.714Z,49.70
2018-03-30T22:33:50.775Z,49.75
2018-03-30T22:36:17.772Z,49.79
2018-03-30T22:38:44.868Z,49.81
2018-03-30T22:41:12.045Z,50.17
2018-03-30T22:43:39.069Z,50.03
2018-03-30T22:46:06.165Z,50.21
2018-03-30T22:48:33.184Z,50.42
2018-03-30T22:51:00.684Z,51.25
2018-03-30T22:53:27.688Z,50.93
2018-03-30T22:55:54.904Z,50.77
2018-03-30T22:58:23.401Z,51.27
2018-03-30T23:00:51.388Z,51.77
2018-03-30T23:03:18.479Z,51.64
2018-03-30T23:05:46.583Z,51.85
2018-03-30T23:08:14.230Z,52.70
2018-03-30T23:10:41.493Z,52.85
2018-03-30T23:13:09.187Z,53.11
2018-03-30T23:15:36.202Z,52.75
2018-03-30T23:18:03.978Z,53.09
2018-03-30T23:20:32.370Z,52.77
2018-03-30T23:22:59.893Z,52.79
2018-03-30T23:25:26.974Z,52.63
2018-03-30T23:27:54.011Z,53.02
2018-03-30T23:30:21.587Z,52.65
2018-03-30T23:32:48.606Z,53.19
2018-03-30T23:35:15.680Z,53.59
2018-03-30T23:37:42.928Z,53.12
2018-03-30T23:40:10.059Z,53.65
2018-03-30T23:42:37.163Z,53.35
2018-03-30T23:45:04.464Z,54.08
2018-03-30T23:47:32.239Z,53.97
2018-03-30T23:49:59.712Z,54.45
2018-03-30T23:52:26.716Z,54.17
2018-03-30T23:54:54.446Z,54.22
2018-03-30T23:57:21.477Z,54.84
2018-03-30T23:59:49.112Z,54.57
